createdAt,value
2023-02-25T00:01:57.720Z,3.55
2023-02-25T00:04:32.385Z,3.57
2023-02-25T00:07:00.957Z,3.57
2023-02-25T00:09:30.084Z,3.55
2023-02-25T00:11:58.049Z,3.57
2023-02-25T00:14:26.192Z,3.61
2023-02-25T00:16:57.550Z,3.57
2023-02-25T00:19:27.014Z,3.59
2023-02-25T00:21:55.844Z,3.65
2023-02-25T00:24:24.151Z,3.61
2023-02-25T00:26:52.063Z,3.62
2023-02-25T00:29:19.911Z,3.61
2023-02-25T00:31:48.014Z,3.63
2023-02-25T00:34:18.040Z,3.64
2023-02-25T00:36:46.186Z,3.68
2023-02-25T00:39:14.250Z,3.69
2023-02-25T00:41:42.492Z,3.71
2023-02-25T00:44:10.408Z,3.70
2023-02-25T00:46:39.535Z,3.68
2023-02-25T00:49:07.438Z,3.70
2023-02-25T00:51:35.520Z,3.69
2023-02-25T00:54:03.565Z,3.67
2023-02-25T00:56:31.359Z,3.70
2023-02-25T00:58:59.820Z,3.72
2023-02-25T01:01:33.396Z,3.67
2023-02-25T01:04:02.022Z,3.71
2023-02-25T01:06:32.693Z,3.76
2023-02-25T01:09:01.452Z,3.77
2023-02-25T01:11:32.682Z,3.77
2023-02-25T01:14:04.052Z,3.81
2023-02-25T01:16:33.641Z,3.81
2023-02-25T01:19:05.216Z,3.85
2023-02-25T01:21:36.958Z,3.87
2023-02-25T01:24:14.019Z,3.86
2023-02-25T01:26:44.811Z,3.88
2023-02-25T01:29:20.092Z,3.86
2023-02-25T01:31:55.818Z,3.88
2023-02-25T01:34:24.664Z,3.88
2023-02-25T01:36:52.852Z,3.87
2023-02-25T01:39:22.796Z,3.91
2023-02-25T01:41:54.167Z,3.88
2023-02-25T01:44:28.983Z,3.86
2023-02-25T01:46:56.976Z,3.86
2023-02-25T01:49:36.928Z,3.82
2023-02-25T01:52:19.267Z,3.85
2023-02-25T01:54:52.511Z,3.87
2023-02-25T01:57:21.765Z,3.86
2023-02-25T01:59:52.021Z,3.84
2023-02-25T02:02:21.982Z,3.81
2023-02-25T02:04:53.178Z,3.86
2023-02-25T02:07:24.824Z,3.87
2023-02-25T02:09:56.538Z,3.88
2023-02-25T02:12:27.799Z,3.88
2023-02-25T02:14:59.920Z,3.87
2023-02-25T02:18:01.373Z,3.85
2023-02-25T02:20:51.570Z,3.84
2023-02-25T02:23:24.110Z,3.85
2023-02-25T02:26:07.086Z,3.86
2023-02-25T02:29:09.606Z,3.83
2023-02-25T02:31:57.918Z,3.86
2023-02-25T02:34:43.623Z,3.88
2023-02-25T02:37:23.791Z,3.84
2023-02-25T02:40:05.915Z,3.80
2023-02-25T02:43:23.220Z,3.79
2023-02-25T02:45:59.750Z,3.75
2023-02-25T02:48:43.391Z,3.78
2023-02-25T02:51:19.870Z,3.78
2023-02-25T02:53:53.937Z,3.75
2023-02-25T02:56:25.499Z,3.75
2023-02-25T02:59:01.254Z,3.77
2023-02-25T03:01:41.436Z,3.73
2023-02-25T03:04:14.432Z,3.73
2023-02-25T03:06:49.249Z,3.74
2023-02-25T03:09:25.892Z,3.73
2023-02-25T03:11:53.851Z,3.75
2023-02-25T03:14:22.271Z,3.76
2023-02-25T03:16:59.468Z,3.79
2023-02-25T03:19:37.058Z,3.81
2023-02-25T03:22:21.624Z,3.84
2023-02-25T03:25:08.508Z,3.82
2023-02-25T03:27:39.994Z,3.79
2023-02-25T03:30:44.742Z,3.81
2023-02-25T03:33:29.585Z,3.85
2023-02-25T03:36:01.922Z,3.89
2023-02-25T03:38:33.995Z,3.89
2023-02-25T03:41:07.577Z,3.82
2023-02-25T03:43:42.077Z,3.82
2023-02-25T03:46:11.677Z,3.81
2023-02-25T03:48:41.618Z,3.87
2023-02-25T03:51:14.596Z,3.93
2023-02-25T03:53:43.362Z,3.88
2023-02-25T03:56:14.340Z,3.83
2023-02-25T03:58:44.646Z,3.80
2023-02-25T04:01:17.331Z,3.82
2023-02-25T04:03:45.465Z,3.86
2023-02-25T04:06:14.545Z,3.87
2023-02-25T04:08:42.670Z,3.86
2023-02-25T04:11:10.591Z,3.84
2023-02-25T04:13:39.899Z,3.78
2023-02-25T04:16:08.662Z,3.72
2023-02-25T04:18:38.807Z,3.67
2023-02-25T04:21:08.981Z,3.56
2023-02-25T04:23:37.083Z,3.53
2023-02-25T04:26:05.131Z,3.51
2023-02-25T04:28:33.087Z,3.52
2023-02-25T04:31:01.164Z,3.49
2023-02-25T04:33:29.087Z,3.48
2023-02-25T04:35:56.931Z,3.42
2023-02-25T04:38:25.120Z,3.40
2023-02-25T04:40:53.255Z,3.38
2023-02-25T04:43:21.199Z,3.31
2023-02-25T04:45:49.438Z,3.28
2023-02-25T04:48:24.207Z,3.27
2023-02-25T04:50:52.107Z,3.24
2023-02-25T04:53:20.470Z,3.21
2023-02-25T04:55:49.015Z,3.20
2023-02-25T04:58:16.961Z,3.18
2023-02-25T05:00:49.077Z,3.15
2023-02-25T05:03:17.564Z,3.14
2023-02-25T05:05:45.462Z,3.16
2023-02-25T05:08:13.304Z,3.17
2023-02-25T05:10:41.332Z,3.16
2023-02-25T05:13:09.240Z,3.23
2023-02-25T05:15:37.244Z,3.15
2023-02-25T05:18:05.251Z,3.15
2023-02-25T05:20:33.790Z,3.11
2023-02-25T05:23:01.764Z,3.03
2023-02-25T05:25:30.066Z,3.00
2023-02-25T05:27:57.927Z,2.99
2023-02-25T05:30:26.055Z,3.00
2023-02-25T05:32:54.808Z,2.93
2023-02-25T05:35:23.022Z,2.86
2023-02-25T05:37:50.947Z,2.86
2023-02-25T05:40:19.004Z,2.88
2023-02-25T05:42:49.604Z,2.85
2023-02-25T05:45:17.977Z,2.81
2023-02-25T05:47:45.847Z,2.78
2023-02-25T05:50:13.785Z,2.77
2023-02-25T05:52:42.611Z,2.77
2023-02-25T05:55:11.078Z,2.72
2023-02-25T05:57:39.125Z,2.68
2023-02-25T06:00:09.826Z,2.68
2023-02-25T06:02:44.643Z,2.63
2023-02-25T06:05:13.386Z,2.62
2023-02-25T06:07:41.510Z,2.62
2023-02-25T06:10:10.470Z,2.57
2023-02-25T06:12:38.322Z,2.57
2023-02-25T06:15:07.091Z,2.62
2023-02-25T06:17:35.087Z,2.58
2023-02-25T06:20:04.071Z,2.56
2023-02-25T06:22:31.942Z,2.57
2023-02-25T06:25:00.130Z,2.57
2023-02-25T06:27:30.052Z,2.55
2023-02-25T06:30:00.274Z,2.51
2023-02-25T06:32:28.687Z,2.57
2023-02-25T06:34:56.904Z,2.58
2023-02-25T06:37:24.937Z,2.52
2023-02-25T06:39:53.244Z,2.53
2023-02-25T06:42:21.300Z,2.53
2023-02-25T06:44:49.105Z,2.50
2023-02-25T06:47:17.076Z,2.45
2023-02-25T06:49:45.115Z,2.46
2023-02-25T06:52:12.897Z,2.39
2023-02-25T06:54:40.745Z,2.35
2023-02-25T06:57:08.738Z,2.37
2023-02-25T06:59:36.860Z,2.39
2023-02-25T07:02:04.874Z,2.41
2023-02-25T07:04:32.907Z,2.40
2023-02-25T07:07:01.017Z,2.36
2023-02-25T07:09:29.176Z,2.35
2023-02-25T07:11:58.047Z,2.37
2023-02-25T07:14:26.076Z,2.36
2023-02-25T07:16:54.604Z,2.33
2023-02-25T07:19:22.687Z,2.35
2023-02-25T07:21:50.550Z,2.39
2023-02-25T07:24:18.361Z,2.51
2023-02-25T07:26:46.353Z,2.53
2023-02-25T07:29:14.184Z,2.64
2023-02-25T07:31:42.250Z,2.66
2023-02-25T07:34:11.389Z,2.63
2023-02-25T07:36:39.256Z,2.69
2023-02-25T07:39:10.835Z,2.69
2023-02-25T07:41:39.496Z,2.72
2023-02-25T07:44:12.106Z,2.74
2023-02-25T07:46:41.113Z,2.77
2023-02-25T07:49:09.226Z,2.83
2023-02-25T07:51:37.121Z,2.82
2023-02-25T07:54:05.065Z,2.79
2023-02-25T07:56:33.091Z,2.94
2023-02-25T07:59:01.415Z,2.97
2023-02-25T08:01:31.776Z,2.91
2023-02-25T08:04:04.282Z,2.98
2023-02-25T08:06:37.757Z,2.98
2023-02-25T08:09:12.437Z,3.03
2023-02-25T08:11:42.774Z,2.94
2023-02-25T08:14:11.470Z,2.90
2023-02-25T08:16:39.232Z,2.76
2023-02-25T08:19:07.269Z,2.71
2023-02-25T08:21:37.535Z,2.65
2023-02-25T08:24:06.595Z,2.67
2023-02-25T08:26:35.222Z,2.65
2023-02-25T08:29:03.826Z,2.64
2023-02-25T08:31:31.667Z,2.69
2023-02-25T08:33:59.958Z,2.78
2023-02-25T08:36:31.450Z,2.83
2023-02-25T08:39:00.165Z,2.86
2023-02-25T08:41:29.890Z,2.85
2023-02-25T08:44:00.545Z,2.80
2023-02-25T08:46:31.347Z,2.79
2023-02-25T08:49:01.724Z,2.82
2023-02-25T08:51:34.736Z,2.75
2023-02-25T08:54:06.712Z,2.79
2023-02-25T08:56:36.332Z,2.79
2023-02-25T08:59:06.159Z,2.79
2023-02-25T09:01:45.129Z,2.75
2023-02-25T09:04:19.448Z,2.81
2023-02-25T09:06:48.371Z,2.86
2023-02-25T09:09:19.109Z,2.96
2023-02-25T09:11:48.940Z,2.98
2023-02-25T09:14:17.791Z,2.98
2023-02-25T09:16:45.987Z,2.92
2023-02-25T09:19:17.324Z,2.90
2023-02-25T09:21:48.376Z,3.05
2023-02-25T09:24:17.723Z,3.06
2023-02-25T09:26:46.511Z,3.12
2023-02-25T09:29:14.421Z,3.26
2023-02-25T09:31:42.649Z,3.26
2023-02-25T09:34:14.382Z,3.19
2023-02-25T09:36:42.657Z,3.17
2023-02-25T09:39:10.678Z,3.15
2023-02-25T09:41:49.117Z,3.23
2023-02-25T09:44:21.874Z,3.39
2023-02-25T09:46:52.991Z,3.42
2023-02-25T09:49:50.843Z,3.42
2023-02-25T09:52:28.873Z,3.51
2023-02-25T09:55:04.096Z,3.66
2023-02-25T09:57:37.984Z,3.66
2023-02-25T10:00:21.018Z,3.62
2023-02-25T10:02:53.619Z,3.75
2023-02-25T10:05:30.520Z,3.75
2023-02-25T10:08:19.186Z,3.68
2023-02-25T10:10:47.321Z,3.60
2023-02-25T10:13:18.225Z,3.64
2023-02-25T10:16:09.349Z,3.78
2023-02-25T10:19:08.635Z,3.98
2023-02-25T10:22:01.035Z,3.96
2023-02-25T10:24:50.412Z,3.91
2023-02-25T10:27:31.963Z,3.75
2023-02-25T10:30:12.443Z,3.81
2023-02-25T10:32:43.633Z,3.80
2023-02-25T10:35:24.967Z,3.81
2023-02-25T10:37:53.329Z,3.90
2023-02-25T10:40:25.132Z,3.98
2023-02-25T10:42:58.709Z,3.97
2023-02-25T10:45:30.104Z,4.06
2023-02-25T10:48:07.585Z,4.09
2023-02-25T10:50:45.365Z,4.14
2023-02-25T10:53:18.379Z,4.12
2023-02-25T10:55:52.304Z,3.95
2023-02-25T10:58:44.592Z,3.91
2023-02-25T11:01:13.931Z,3.94
2023-02-25T11:03:52.051Z,3.88
2023-02-25T11:06:28.112Z,3.85
2023-02-25T11:08:59.115Z,3.95
2023-02-25T11:11:32.596Z,4.01
2023-02-25T11:14:06.731Z,4.12
2023-02-25T11:16:39.207Z,4.13
2023-02-25T11:19:32.027Z,4.22
2023-02-25T11:22:26.590Z,4.27
2023-02-25T11:25:03.930Z,4.41
2023-02-25T11:27:43.316Z,4.57
2023-02-25T11:30:14.214Z,4.77
2023-02-25T11:32:44.934Z,4.77
2023-02-25T11:35:20.264Z,4.83
2023-02-25T11:37:48.503Z,4.90
2023-02-25T11:40:24.686Z,4.77
2023-02-25T11:43:01.936Z,4.94
2023-02-25T11:45:32.521Z,4.99
2023-02-25T11:48:16.126Z,4.88
2023-02-25T11:51:03.177Z,4.63
2023-02-25T11:54:09.013Z,4.50
2023-02-25T11:56:40.487Z,4.29
2023-02-25T11:59:24.986Z,4.10
2023-02-25T12:02:11.958Z,3.91
2023-02-25T12:04:45.793Z,3.88
2023-02-25T12:07:35.104Z,3.83
2023-02-25T12:10:27.670Z,3.71
2023-02-25T12:13:17.183Z,3.84
2023-02-25T12:16:24.168Z,4.04
2023-02-25T12:19:28.173Z,4.14
2023-02-25T12:22:22.726Z,4.06
2023-02-25T12:25:03.930Z,3.98
2023-02-25T12:27:58.853Z,3.96
2023-02-25T12:31:07.253Z,3.97
2023-02-25T12:33:54.204Z,3.99
2023-02-25T12:36:31.540Z,4.08
2023-02-25T12:39:33.742Z,4.00
2023-02-25T12:42:33.966Z,3.95
2023-02-25T12:45:39.948Z,4.00
2023-02-25T12:48:20.205Z,3.98
2023-02-25T12:51:10.333Z,3.84
2023-02-25T12:54:11.204Z,3.74
2023-02-25T12:57:17.908Z,3.74
2023-02-25T13:00:29.065Z,3.70
2023-02-25T13:03:24.817Z,3.62
2023-02-25T13:06:11.593Z,3.74
2023-02-25T13:09:07.526Z,3.76
2023-02-25T13:12:10.536Z,3.63
2023-02-25T13:14:54.295Z,3.40
2023-02-25T13:17:47.581Z,2.95
2023-02-25T13:20:35.827Z,2.89
2023-02-25T13:23:21.991Z,2.93
2023-02-25T13:26:17.855Z,2.90
2023-02-25T13:29:10.493Z,2.92
2023-02-25T13:32:11.922Z,3.03
2023-02-25T13:35:04.261Z,3.03
2023-02-25T13:37:44.568Z,3.12
2023-02-25T13:40:51.270Z,3.10
2023-02-25T13:43:31.294Z,3.11
2023-02-25T13:46:38.994Z,3.08
2023-02-25T13:49:36.317Z,3.06
2023-02-25T13:52:13.671Z,3.17
2023-02-25T13:55:22.519Z,3.12
2023-02-25T13:58:14.746Z,3.21
2023-02-25T14:01:07.625Z,3.26
2023-02-25T14:03:57.706Z,3.35
2023-02-25T14:06:56.530Z,3.32
2023-02-25T14:09:52.910Z,3.41
2023-02-25T14:12:45.949Z,3.38
2023-02-25T14:15:42.358Z,3.35
2023-02-25T14:18:44.710Z,3.40
2023-02-25T14:21:47.285Z,3.41
2023-02-25T14:24:43.191Z,3.52
2023-02-25T14:27:26.423Z,3.70
2023-02-25T14:30:26.717Z,3.68
2023-02-25T14:33:35.818Z,3.70
2023-02-25T14:36:35.503Z,3.68
2023-02-25T14:39:28.974Z,3.73
2023-02-25T14:42:35.546Z,3.67
2023-02-25T14:45:09.396Z,3.58
2023-02-25T14:47:50.674Z,3.58
2023-02-25T14:50:25.772Z,3.61
2023-02-25T14:53:04.553Z,3.58
2023-02-25T14:55:41.908Z,3.57
2023-02-25T14:58:26.670Z,3.55
2023-02-25T15:01:38.008Z,3.49
2023-02-25T15:04:25.296Z,3.42
2023-02-25T15:07:06.062Z,3.08
2023-02-25T15:09:52.815Z,2.73
2023-02-25T15:12:37.814Z,2.33
2023-02-25T15:15:27.911Z,2.13
2023-02-25T15:18:33.060Z,2.01
2023-02-25T15:21:21.628Z,2.00
2023-02-25T15:23:51.042Z,1.96
2023-02-25T15:26:40.526Z,1.94
2023-02-25T15:29:20.019Z,2.05
2023-02-25T15:32:10.609Z,2.12
2023-02-25T15:34:53.105Z,2.18
2023-02-25T15:37:56.627Z,2.19
2023-02-25T15:40:33.877Z,2.22
2023-02-25T15:43:24.024Z,2.23
2023-02-25T15:45:55.186Z,2.26
2023-02-25T15:48:29.929Z,2.31
2023-02-25T15:51:00.236Z,2.27
2023-02-25T15:53:29.343Z,2.25
2023-02-25T15:56:03.373Z,2.28
2023-02-25T15:58:31.267Z,2.25
2023-02-25T16:01:05.405Z,2.21
2023-02-25T16:03:35.925Z,1.92
2023-02-25T16:06:05.805Z,1.78
2023-02-25T16:09:05.413Z,1.43
2023-02-25T16:11:38.435Z,1.31
2023-02-25T16:14:32.817Z,1.25
2023-02-25T16:17:15.238Z,1.29
2023-02-25T16:19:46.475Z,1.32
2023-02-25T16:22:24.631Z,1.35
2023-02-25T16:24:58.236Z,1.42
2023-02-25T16:27:54.703Z,1.46
2023-02-25T16:30:41.680Z,1.46
2023-02-25T16:33:20.645Z,1.49
2023-02-25T16:35:50.301Z,1.47
2023-02-25T16:38:36.737Z,1.47
2023-02-25T16:41:06.251Z,1.49
2023-02-25T16:43:38.166Z,1.41
2023-02-25T16:46:10.558Z,1.43
2023-02-25T16:48:54.769Z,1.45
2023-02-25T16:51:34.599Z,1.44
2023-02-25T16:54:07.707Z,1.47
2023-02-25T16:56:36.722Z,1.44
2023-02-25T16:59:10.534Z,1.41
2023-02-25T17:01:39.219Z,1.38
2023-02-25T17:04:20.033Z,1.37
2023-02-25T17:07:13.240Z,1.33
2023-02-25T17:10:06.330Z,1.34
2023-02-25T17:12:45.942Z,1.35
2023-02-25T17:15:23.217Z,1.36
2023-02-25T17:18:15.231Z,1.37
2023-02-25T17:20:43.573Z,1.36
2023-02-25T17:23:15.543Z,1.36
2023-02-25T17:25:48.626Z,1.37
2023-02-25T17:28:24.140Z,1.37
2023-02-25T17:30:54.999Z,1.38
2023-02-25T17:33:27.049Z,1.39
2023-02-25T17:36:09.020Z,1.43
2023-02-25T17:38:39.164Z,1.43
2023-02-25T17:41:07.438Z,1.46
2023-02-25T17:43:38.210Z,1.38
2023-02-25T17:46:38.176Z,1.38
2023-02-25T17:49:28.408Z,1.33
2023-02-25T17:52:31.325Z,1.39
2023-02-25T17:55:04.030Z,1.27
2023-02-25T17:57:33.258Z,1.30
2023-02-25T18:00:24.497Z,1.26
2023-02-25T18:03:13.657Z,1.17
2023-02-25T18:05:51.665Z,1.19
2023-02-25T18:08:24.176Z,1.09
2023-02-25T18:11:04.182Z,1.05
2023-02-25T18:13:38.136Z,1.04
2023-02-25T18:16:21.261Z,1.01
2023-02-25T18:18:51.617Z,0.95
2023-02-25T18:21:21.026Z,0.96
2023-02-25T18:23:53.362Z,0.89
2023-02-25T18:26:24.469Z,0.88
2023-02-25T18:28:54.900Z,0.82
2023-02-25T18:31:23.153Z,0.80
2023-02-25T18:33:52.176Z,0.81
2023-02-25T18:36:26.580Z,0.78
2023-02-25T18:38:58.688Z,0.76
2023-02-25T18:41:26.709Z,0.74
2023-02-25T18:43:54.797Z,0.73
2023-02-25T18:46:23.208Z,0.72
2023-02-25T18:48:51.237Z,0.76
2023-02-25T18:51:19.255Z,0.68
2023-02-25T18:53:47.236Z,0.72
2023-02-25T18:56:17.344Z,0.73
2023-02-25T18:58:45.703Z,0.74
2023-02-25T19:01:24.211Z,0.72
2023-02-25T19:03:54.074Z,0.72
2023-02-25T19:06:22.144Z,0.69
2023-02-25T19:08:50.218Z,0.73
2023-02-25T19:11:23.430Z,0.78
2023-02-25T19:13:52.093Z,0.76
2023-02-25T19:16:20.382Z,0.67
2023-02-25T19:18:48.580Z,0.69
2023-02-25T19:21:20.388Z,0.67
2023-02-25T19:23:53.713Z,0.70
2023-02-25T19:26:22.060Z,0.65
2023-02-25T19:28:50.334Z,0.66
2023-02-25T19:31:18.744Z,0.60
2023-02-25T19:33:46.760Z,0.58
2023-02-25T19:36:14.801Z,0.51
2023-02-25T19:38:42.723Z,0.55
2023-02-25T19:41:13.329Z,0.59
2023-02-25T19:43:41.382Z,0.57
2023-02-25T19:46:10.399Z,0.57
2023-02-25T19:48:38.443Z,0.58
2023-02-25T19:51:08.088Z,0.58
2023-02-25T19:53:36.508Z,0.59
2023-02-25T19:56:05.504Z,0.63
2023-02-25T19:58:34.034Z,0.61
2023-02-25T20:01:07.262Z,0.61
2023-02-25T20:03:36.216Z,0.60
2023-02-25T20:06:12.948Z,0.58
2023-02-25T20:08:42.215Z,0.53
2023-02-25T20:11:11.083Z,0.50
2023-02-25T20:13:39.379Z,0.44
2023-02-25T20:16:09.257Z,0.44
2023-02-25T20:18:38.015Z,0.42
2023-02-25T20:21:07.089Z,0.36
2023-02-25T20:23:35.213Z,0.33
2023-02-25T20:26:08.560Z,0.29
2023-02-25T20:28:36.870Z,0.29
2023-02-25T20:31:10.853Z,0.27
2023-02-25T20:33:39.537Z,0.21
2023-02-25T20:36:22.363Z,0.19
2023-02-25T20:39:29.641Z,0.07
2023-02-25T20:41:57.913Z,0.12
2023-02-25T20:44:26.501Z,0.04
2023-02-25T20:46:54.558Z,0.05
2023-02-25T20:49:22.654Z,0.06
2023-02-25T20:51:51.707Z,-0.00
2023-02-25T20:54:20.226Z,-0.03
2023-02-25T20:56:49.730Z,-0.01
2023-02-25T20:59:19.020Z,-0.04
2023-02-25T21:01:47.010Z,-0.02
2023-02-25T21:04:15.396Z,-0.09
2023-02-25T21:06:43.353Z,-0.11
2023-02-25T21:09:11.283Z,-0.13
2023-02-25T21:11:39.154Z,-0.14
2023-02-25T21:14:10.420Z,-0.08
2023-02-25T21:16:39.137Z,-0.07
2023-02-25T21:19:07.393Z,-0.10
2023-02-25T21:21:38.504Z,-0.08
2023-02-25T21:24:10.284Z,-0.08
2023-02-25T21:26:39.497Z,-0.08
2023-02-25T21:29:08.450Z,-0.01
2023-02-25T21:31:36.807Z,-0.01
2023-02-25T21:34:05.202Z,0.03
2023-02-25T21:36:33.221Z,0.00
2023-02-25T21:39:01.664Z,0.03
2023-02-25T21:41:29.712Z,0.01
2023-02-25T21:43:58.100Z,0.05
2023-02-25T21:46:28.245Z,0.07
2023-02-25T21:48:56.861Z,0.08
2023-02-25T21:51:26.718Z,0.05
2023-02-25T21:54:00.201Z,0.07
2023-02-25T21:56:30.855Z,0.12
2023-02-25T21:59:01.390Z,0.13
2023-02-25T22:01:32.856Z,0.06
2023-02-25T22:04:01.485Z,0.04
2023-02-25T22:06:29.800Z,0.06
2023-02-25T22:08:58.397Z,0.05
2023-02-25T22:11:32.628Z,0.02
2023-02-25T22:14:03.021Z,-0.00
2023-02-25T22:16:31.675Z,-0.01
2023-02-25T22:19:00.592Z,-0.01
2023-02-25T22:21:31.319Z,0.04
2023-02-25T22:24:01.776Z,0.06
2023-02-25T22:26:32.653Z,0.00
2023-02-25T22:29:04.470Z,-0.07
2023-02-25T22:31:34.248Z,-0.04
2023-02-25T22:34:03.091Z,0.01
2023-02-25T22:36:31.099Z,0.06
2023-02-25T22:38:58.931Z,0.02
2023-02-25T22:41:29.547Z,-0.04
2023-02-25T22:43:59.065Z,0.03
2023-02-25T22:46:30.165Z,0.02
2023-02-25T22:48:58.695Z,-0.06
2023-02-25T22:51:37.607Z,-0.05
2023-02-25T22:54:05.614Z,-0.07
2023-02-25T22:56:33.990Z,-0.08
2023-02-25T22:59:02.046Z,-0.06
2023-02-25T23:01:30.232Z,-0.10
2023-02-25T23:03:58.684Z,-0.18
2023-02-25T23:06:42.408Z,-0.15
2023-02-25T23:09:12.386Z,-0.09
2023-02-25T23:11:43.192Z,-0.14
2023-02-25T23:14:12.743Z,-0.12
2023-02-25T23:16:43.586Z,-0.16
2023-02-25T23:19:16.153Z,-0.13
2023-02-25T23:21:44.530Z,-0.13
2023-02-25T23:24:16.559Z,-0.10
2023-02-25T23:26:46.463Z,-0.10
2023-02-25T23:29:15.108Z,-0.09
2023-02-25T23:31:47.161Z,-0.08
2023-02-25T23:34:25.913Z,-0.08
2023-02-25T23:36:57.551Z,-0.10
2023-02-25T23:39:26.751Z,-0.11
2023-02-25T23:41:54.619Z,-0.14
2023-02-25T23:44:22.551Z,-0.11
2023-02-25T23:46:50.389Z,-0.06
2023-02-25T23:49:18.453Z,-0.07
2023-02-25T23:51:48.072Z,-0.11
2023-02-25T23:54:19.394Z,-0.11
2023-02-25T23:56:48.946Z,-0.15
2023-02-25T23:59:17.406Z,-0.20
